sensor_id;sensor_type;location;lat;lon;timestamp;pressure;altitude;pressure_sealevel;temperature;humidity
75008;BME280;63554;48.940;12.050;2023-12-20T00:03:48;97373.28;;;1.63;100.00
75008;BME280;63554;48.940;12.050;2023-12-20T00:07:52;97359.59;;;1.66;100.00
75008;BME280;63554;48.940;12.050;2023-12-20T00:11:55;97339.59;;;1.70;100.00
75008;BME280;63554;48.940;12.050;2023-12-20T00:15:58;97325.78;;;1.67;100.00
75008;BME280;63554;48.940;12.050;2023-12-20T00:20:01;97321.28;;;1.67;100.00
75008;BME280;63554;48.940;12.050;2023-12-20T00:24:05;97320.94;;;1.70;100.00
75008;BME280;63554;48.940;12.050;2023-12-20T00:28:08;97320.09;;;1.70;100.00
75008;BME280;63554;48.940;12.050;2023-12-20T00:32:11;97330.97;;;1.76;100.00
75008;BME280;63554;48.940;12.050;2023-12-20T00:36:13;97332.97;;;1.83;100.00
75008;BME280;63554;48.940;12.050;2023-12-20T00:40:17;97311.94;;;1.88;100.00
75008;BME280;63554;48.940;12.050;2023-12-20T00:44:20;97311.28;;;1.94;100.00
75008;BME280;63554;48.940;12.050;2023-12-20T00:48:23;97326.47;;;2.02;100.00
75008;BME280;63554;48.940;12.050;2023-12-20T00:52:26;97308.97;;;1.99;100.00
75008;BME280;63554;48.940;12.050;2023-12-20T00:56:30;97304.28;;;2.01;100.00
75008;BME280;63554;48.940;12.050;2023-12-20T01:00:32;97307.47;;;2.05;100.00
75008;BME280;63554;48.940;12.050;2023-12-20T01:04:35;97315.81;;;2.10;100.00
75008;BME280;63554;48.940;12.050;2023-12-20T01:08:38;97308.47;;;2.12;100.00
75008;BME280;63554;48.940;12.050;2023-12-20T01:12:43;97313.47;;;2.07;100.00
75008;BME280;63554;48.940;12.050;2023-12-20T01:16:47;97314.66;;;2.04;100.00
75008;BME280;63554;48.940;12.050;2023-12-20T01:20:50;97306.97;;;2.01;100.00
75008;BME280;63554;48.940;12.050;2023-12-20T01:24:52;97317.47;;;2.03;100.00
75008;BME280;63554;48.940;12.050;2023-12-20T01:28:56;97314.13;;;2.01;100.00
75008;BME280;63554;48.940;12.050;2023-12-20T01:33:00;97313.47;;;1.98;100.00
75008;BME280;63554;48.940;12.050;2023-12-20T01:37:03;97300.28;;;1.97;100.00
75008;BME280;63554;48.940;12.050;2023-12-20T01:41:06;97288.13;;;1.94;100.00
75008;BME280;63554;48.940;12.050;2023-12-20T01:45:11;97296.78;;;1.96;100.00
75008;BME280;63554;48.940;12.050;2023-12-20T01:49:14;97305.47;;;1.98;100.00
75008;BME280;63554;48.940;12.050;2023-12-20T01:53:19;97295.78;;;1.97;100.00
75008;BME280;63554;48.940;12.050;2023-12-20T01:57:24;97295.13;;;1.95;100.00
75008;BME280;63554;48.940;12.050;2023-12-20T02:01:28;97285.78;;;1.91;100.00
75008;BME280;63554;48.940;12.050;2023-12-20T02:05:32;97286.44;;;1.85;100.00
75008;BME280;63554;48.940;12.050;2023-12-20T02:09:35;97273.44;;;1.82;100.00
75008;BME280;63554;48.940;12.050;2023-12-20T02:13:39;97268.28;;;1.81;100.00
75008;BME280;63554;48.940;12.050;2023-12-20T02:17:44;97267.63;;;1.78;100.00
75008;BME280;63554;48.940;12.050;2023-12-20T02:21:49;97260.44;;;1.79;100.00
75008;BME280;63554;48.940;12.050;2023-12-20T02:25:52;97246.94;;;1.81;100.00
75008;BME280;63554;48.940;12.050;2023-12-20T02:29:55;97239.59;;;1.83;100.00
75008;BME280;63554;48.940;12.050;2023-12-20T02:33:57;97237.75;;;1.83;100.00
75008;BME280;63554;48.940;12.050;2023-12-20T02:38:02;97238.09;;;1.88;100.00
75008;BME280;63554;48.940;12.050;2023-12-20T02:42:04;97239.91;;;1.88;100.00
75008;BME280;63554;48.940;12.050;2023-12-20T02:46:07;97230.75;;;1.90;100.00
75008;BME280;63554;48.940;12.050;2023-12-20T02:50:10;97229.91;;;1.90;100.00
75008;BME280;63554;48.940;12.050;2023-12-20T02:54:14;97229.06;;;1.89;100.00
75008;BME280;63554;48.940;12.050;2023-12-20T02:58:17;97228.75;;;1.92;100.00
75008;BME280;63554;48.940;12.050;2023-12-20T03:02:20;97234.56;;;1.96;100.00
75008;BME280;63554;48.940;12.050;2023-12-20T03:06:23;97235.41;;;1.96;100.00
75008;BME280;63554;48.940;12.050;2023-12-20T03:10:27;97228.09;;;1.90;100.00
75008;BME280;63554;48.940;12.050;2023-12-20T03:14:30;97224.06;;;1.94;100.00
75008;BME280;63554;48.940;12.050;2023-12-20T03:18:32;97222.25;;;1.95;100.00
75008;BME280;63554;48.940;12.050;2023-12-20T03:22:35;97210.91;;;1.93;100.00
75008;BME280;63554;48.940;12.050;2023-12-20T03:26:39;97206.88;;;1.97;100.00
75008;BME280;63554;48.940;12.050;2023-12-20T03:30:42;97192.88;;;1.95;100.00
75008;BME280;63554;48.940;12.050;2023-12-20T03:34:45;97190.38;;;1.93;100.00
75008;BME280;63554;48.940;12.050;2023-12-20T03:38:48;97192.88;;;1.95;100.00
75008;BME280;63554;48.940;12.050;2023-12-20T03:42:52;97207.72;;;1.97;100.00
75008;BME280;63554;48.940;12.050;2023-12-20T03:46:55;97214.56;;;2.00;100.00
75008;BME280;63554;48.940;12.050;2023-12-20T03:50:58;97217.03;;;2.02;100.00
75008;BME280;63554;48.940;12.050;2023-12-20T03:55:00;97211.22;;;2.06;100.00
75008;BME280;63554;48.940;12.050;2023-12-20T03:59:04;97222.41;;;2.10;100.00
75008;BME280;63554;48.940;12.050;2023-12-20T04:03:07;97229.88;;;2.14;100.00
75008;BME280;63554;48.940;12.050;2023-12-20T04:07:10;97224.53;;;2.14;100.00
75008;BME280;63554;48.940;12.050;2023-12-20T04:11:13;97230.38;;;2.18;100.00
75008;BME280;63554;48.940;12.050;2023-12-20T04:15:17;97221.34;;;2.19;100.00
75008;BME280;63554;48.940;12.050;2023-12-20T04:19:19;97221.84;;;2.23;100.00
75008;BME280;63554;48.940;12.050;2023-12-20T04:23:23;97228.34;;;2.28;100.00
75008;BME280;63554;48.940;12.050;2023-12-20T04:27:26;97229.00;;;2.30;100.00
75008;BME280;63554;48.940;12.050;2023-12-20T04:31:30;97238.66;;;2.48;100.00
75008;BME280;63554;48.940;12.050;2023-12-20T04:35:32;97233.81;;;2.51;100.00
75008;BME280;63554;48.940;12.050;2023-12-20T04:39:35;97240.47;;;2.55;100.00
75008;BME280;63554;48.940;12.050;2023-12-20T04:43:38;97236.13;;;2.54;100.00
75008;BME280;63554;48.940;12.050;2023-12-20T04:47:43;97245.16;;;2.53;100.00
75008;BME280;63554;48.940;12.050;2023-12-20T04:51:47;97247.31;;;2.50;100.00
75008;BME280;63554;48.940;12.050;2023-12-20T04:55:50;97236.97;;;2.47;100.00
75008;BME280;63554;48.940;12.050;2023-12-20T04:59:53;97232.66;;;2.46;100.00
75008;BME280;63554;48.940;12.050;2023-12-20T05:03:57;97236.81;;;2.48;100.00
75008;BME280;63554;48.940;12.050;2023-12-20T05:08:00;97240.00;;;2.44;100.00
75008;BME280;63554;48.940;12.050;2023-12-20T05:12:03;97232.47;;;2.39;100.00
75008;BME280;63554;48.940;12.050;2023-12-20T05:16:06;97241.50;;;2.38;100.00
75008;BME280;63554;48.940;12.050;2023-12-20T05:20:10;97241.84;;;2.35;100.00
75008;BME280;63554;48.940;12.050;2023-12-20T05:24:13;97244.72;;;2.81;100.00
75008;BME280;63554;48.940;12.050;2023-12-20T05:28:16;97244.75;;;2.73;100.00
75008;BME280;63554;48.940;12.050;2023-12-20T05:32:19;97259.69;;;2.99;100.00
75008;BME280;63554;48.940;12.050;2023-12-20T05:36:23;97258.09;;;3.44;100.00
75008;BME280;63554;48.940;12.050;2023-12-20T05:40:25;97260.81;;;3.59;100.00
75008;BME280;63554;48.940;12.050;2023-12-20T05:44:28;97256.53;;;3.26;100.00
75008;BME280;63554;48.940;12.050;2023-12-20T05:48:31;97265.50;;;3.33;100.00
75008;BME280;63554;48.940;12.050;2023-12-20T05:52:35;97274.84;;;3.38;100.00
75008;BME280;63554;48.940;12.050;2023-12-20T05:56:38;97271.38;;;3.29;100.00
75008;BME280;63554;48.940;12.050;2023-12-20T06:00:40;97280.34;;;3.05;100.00
75008;BME280;63554;48.940;12.050;2023-12-20T06:04:43;97292.03;;;3.04;100.00
75008;BME280;63554;48.940;12.050;2023-12-20T06:08:47;97290.50;;;2.70;100.00
75008;BME280;63554;48.940;12.050;2023-12-20T06:12:50;97299.91;;;2.57;100.00
75008;BME280;63554;48.940;12.050;2023-12-20T06:16:53;97308.06;;;2.56;100.00
75008;BME280;63554;48.940;12.050;2023-12-20T06:20:56;97312.91;;;2.52;100.00
75008;BME280;63554;48.940;12.050;2023-12-20T06:25:00;97305.41;;;2.48;100.00
75008;BME280;63554;48.940;12.050;2023-12-20T06:29:02;97318.78;;;2.48;100.00
75008;BME280;63554;48.940;12.050;2023-12-20T06:33:05;97312.25;;;2.50;100.00
75008;BME280;63554;48.940;12.050;2023-12-20T06:37:08;97313.44;;;2.48;100.00
75008;BME280;63554;48.940;12.050;2023-12-20T06:41:15;97323.94;;;2.57;100.00
75008;BME280;63554;48.940;12.050;2023-12-20T06:45:18;97312.59;;;2.55;100.00
75008;BME280;63554;48.940;12.050;2023-12-20T06:49:21;97317.75;;;2.57;100.00
75008;BME280;63554;48.940;12.050;2023-12-20T06:53:23;97316.06;;;2.64;100.00
75008;BME280;63554;48.940;12.050;2023-12-20T06:57:27;97338.94;;;2.67;100.00
75008;BME280;63554;48.940;12.050;2023-12-20T07:01:30;97348.97;;;2.65;100.00
75008;BME280;63554;48.940;12.050;2023-12-20T07:05:33;97360.31;;;2.75;100.00
75008;BME280;63554;48.940;12.050;2023-12-20T07:09:35;97350.97;;;2.71;100.00
75008;BME280;63554;48.940;12.050;2023-12-20T07:13:41;97363.16;;;2.73;100.00
75008;BME280;63554;48.940;12.050;2023-12-20T07:17:44;97371.97;;;2.74;100.00
75008;BME280;63554;48.940;12.050;2023-12-20T07:21:46;97368.97;;;2.77;100.00
75008;BME280;63554;48.940;12.050;2023-12-20T07:25:49;97369.97;;;2.76;100.00
75008;BME280;63554;48.940;12.050;2023-12-20T07:29:53;97383.84;;;2.80;100.00
75008;BME280;63554;48.940;12.050;2023-12-20T07:33:56;97371.00;;;2.75;100.00
75008;BME280;63554;48.940;12.050;2023-12-20T07:37:59;97382.00;;;2.72;100.00
75008;BME280;63554;48.940;12.050;2023-12-20T07:42:04;97402.03;;;2.76;100.00
75008;BME280;63554;48.940;12.050;2023-12-20T07:46:08;97414.06;;;2.80;100.00
75008;BME280;63554;48.940;12.050;2023-12-20T07:50:11;97425.25;;;2.75;100.00
75008;BME280;63554;48.940;12.050;2023-12-20T07:54:14;97431.78;;;2.73;100.00
75008;BME280;63554;48.940;12.050;2023-12-20T07:58:17;97428.97;;;2.74;100.00
75008;BME280;63554;48.940;12.050;2023-12-20T08:02:21;97426.28;;;2.74;100.00
75008;BME280;63554;48.940;12.050;2023-12-20T08:06:24;97435.13;;;2.75;100.00
75008;BME280;63554;48.940;12.050;2023-12-20T08:10:27;97429.09;;;2.81;100.00
75008;BME280;63554;48.940;12.050;2023-12-20T08:14:31;97434.44;;;2.81;100.00
75008;BME280;63554;48.940;12.050;2023-12-20T08:18:35;97438.31;;;2.79;100.00
75008;BME280;63554;48.940;12.050;2023-12-20T08:22:37;97438.13;;;2.72;100.00
75008;BME280;63554;48.940;12.050;2023-12-20T08:26:40;97447.81;;;2.73;100.00
75008;BME280;63554;48.940;12.050;2023-12-20T08:30:43;97446.28;;;2.70;100.00
75008;BME280;63554;48.940;12.050;2023-12-20T08:34:47;97443.47;;;2.72;100.00
75008;BME280;63554;48.940;12.050;2023-12-20T08:38:50;97437.44;;;2.70;100.00
75008;BME280;63554;48.940;12.050;2023-12-20T08:42:53;97448.13;;;2.70;100.00
75008;BME280;63554;48.940;12.050;2023-12-20T08:46:56;97443.63;;;2.70;100.00
75008;BME280;63554;48.940;12.050;2023-12-20T08:51:02;97444.28;;;2.72;100.00
75008;BME280;63554;48.940;12.050;2023-12-20T08:55:06;97440.63;;;2.73;100.00
75008;BME280;63554;48.940;12.050;2023-12-20T08:59:08;97438.63;;;2.75;100.00
75008;BME280;63554;48.940;12.050;2023-12-20T09:03:14;97450.63;;;2.80;100.00
75008;BME280;63554;48.940;12.050;2023-12-20T09:07:33;97434.78;;;2.78;100.00
75008;BME280;63554;48.940;12.050;2023-12-20T09:11:36;97428.44;;;2.79;100.00
75008;BME280;63554;48.940;12.050;2023-12-20T09:15:39;97429.94;;;2.82;100.00
75008;BME280;63554;48.940;12.050;2023-12-20T09:19:42;97435.63;;;2.87;100.00
75008;BME280;63554;48.940;12.050;2023-12-20T09:23:46;97431.41;;;2.84;100.00
75008;BME280;63554;48.940;12.050;2023-12-20T09:27:49;97432.28;;;2.85;100.00
75008;BME280;63554;48.940;12.050;2023-12-20T09:31:52;97431.91;;;2.88;100.00
75008;BME280;63554;48.940;12.050;2023-12-20T09:35:55;97453.31;;;2.88;100.00
75008;BME280;63554;48.940;12.050;2023-12-20T09:39:59;97451.97;;;2.92;100.00
75008;BME280;63554;48.940;12.050;2023-12-20T09:44:02;97442.13;;;2.92;100.00
75008;BME280;63554;48.940;12.050;2023-12-20T09:48:05;97433.56;;;3.05;100.00
75008;BME280;63554;48.940;12.050;2023-12-20T09:52:11;97426.03;;;3.17;100.00
75008;BME280;63554;48.940;12.050;2023-12-20T09:56:17;97420.66;;;3.17;100.00
75008;BME280;63554;48.940;12.050;2023-12-20T10:00:19;97428.66;;;3.25;100.00
75008;BME280;63554;48.940;12.050;2023-12-20T10:04:22;97423.97;;;3.27;100.00
75008;BME280;63554;48.940;12.050;2023-12-20T10:08:31;97423.31;;;3.33;100.00
75008;BME280;63554;48.940;12.050;2023-12-20T10:12:35;97426.00;;;3.33;100.00
75008;BME280;63554;48.940;12.050;2023-12-20T10:16:37;97420.78;;;3.40;100.00
75008;BME280;63554;48.940;12.050;2023-12-20T10:20:41;97407.41;;;3.40;100.00
75008;BME280;63554;48.940;12.050;2023-12-20T10:24:45;97412.41;;;3.43;100.00
75008;BME280;63554;48.940;12.050;2023-12-20T10:28:53;97407.97;;;3.67;100.00
75008;BME280;63554;48.940;12.050;2023-12-20T10:32:55;97408.47;;;3.93;100.00
75008;BME280;63554;48.940;12.050;2023-12-20T10:36:59;97409.13;;;3.95;100.00
75008;BME280;63554;48.940;12.050;2023-12-20T10:41:03;97413.31;;;3.98;100.00
75008;BME280;63554;48.940;12.050;2023-12-20T10:45:09;97420.47;;;4.06;100.00
75008;BME280;63554;48.940;12.050;2023-12-20T10:49:13;97408.41;;;4.10;100.00
75008;BME280;63554;48.940;12.050;2023-12-20T10:53:17;97421.31;;;4.06;100.00
75008;BME280;63554;48.940;12.050;2023-12-20T10:57:21;97422.13;;;4.07;100.00
75008;BME280;63554;48.940;12.050;2023-12-20T11:01:27;97423.44;;;4.11;100.00
75008;BME280;63554;48.940;12.050;2023-12-20T11:05:38;97410.00;;;4.19;100.00
75008;BME280;63554;48.940;12.050;2023-12-20T11:09:51;97393.63;;;4.14;100.00
75008;BME280;63554;48.940;12.050;2023-12-20T11:14:00;97394.47;;;4.38;100.00
75008;BME280;63554;48.940;12.050;2023-12-20T11:18:05;97386.59;;;4.74;97.04
75008;BME280;63554;48.940;12.050;2023-12-20T11:22:09;97391.38;;;4.49;97.63
75008;BME280;63554;48.940;12.050;2023-12-20T11:26:15;97388.13;;;4.91;95.42
75008;BME280;63554;48.940;12.050;2023-12-20T11:30:20;97397.00;;;5.07;90.91
75008;BME280;63554;48.940;12.050;2023-12-20T11:34:27;97389.16;;;5.20;91.87
75008;BME280;63554;48.940;12.050;2023-12-20T11:38:35;97383.88;;;5.42;91.51
75008;BME280;63554;48.940;12.050;2023-12-20T11:42:39;97367.09;;;5.69;90.27
75008;BME280;63554;48.940;12.050;2023-12-20T11:46:42;97373.97;;;6.08;84.90
75008;BME280;63554;48.940;12.050;2023-12-20T11:50:46;97367.13;;;6.27;84.55
75008;BME280;63554;48.940;12.050;2023-12-20T11:54:49;97368.94;;;5.69;83.31
75008;BME280;63554;48.940;12.050;2023-12-20T11:58:52;97353.19;;;5.81;83.63
75008;BME280;63554;48.940;12.050;2023-12-20T12:03:03;97363.16;;;5.35;86.15
75008;BME280;63554;48.940;12.050;2023-12-20T12:07:07;97360.69;;;5.04;85.89
75008;BME280;63554;48.940;12.050;2023-12-20T12:11:10;97354.47;;;4.89;88.34
75008;BME280;63554;48.940;12.050;2023-12-20T12:15:14;97338.66;;;4.79;85.80
75008;BME280;63554;48.940;12.050;2023-12-20T12:19:20;97336.97;;;4.78;84.65
75008;BME280;63554;48.940;12.050;2023-12-20T12:23:25;97337.69;;;4.72;84.09
75008;BME280;63554;48.940;12.050;2023-12-20T12:27:27;97345.75;;;4.57;84.19
75008;BME280;63554;48.940;12.050;2023-12-20T12:31:30;97352.66;;;4.51;85.75
75008;BME280;63554;48.940;12.050;2023-12-20T12:35:34;97365.09;;;4.44;85.21
75008;BME280;63554;48.940;12.050;2023-12-20T12:39:38;97371.25;;;4.30;83.39
75008;BME280;63554;48.940;12.050;2023-12-20T12:43:41;97382.31;;;4.27;83.47
75008;BME280;63554;48.940;12.050;2023-12-20T12:47:45;97393.75;;;4.21;84.57
75008;BME280;63554;48.940;12.050;2023-12-20T12:51:48;97370.19;;;4.16;85.34
75008;BME280;63554;48.940;12.050;2023-12-20T12:55:52;97355.28;;;4.13;84.49
75008;BME280;63554;48.940;12.050;2023-12-20T12:59:55;97363.63;;;4.19;84.16
75008;BME280;63554;48.940;12.050;2023-12-20T13:03:59;97361.97;;;4.18;85.63
75008;BME280;63554;48.940;12.050;2023-12-20T13:08:05;97350.06;;;4.20;87.16
75008;BME280;63554;48.940;12.050;2023-12-20T13:12:09;97339.88;;;4.15;86.59
75008;BME280;63554;48.940;12.050;2023-12-20T13:16:12;97346.56;;;4.20;86.48
75008;BME280;63554;48.940;12.050;2023-12-20T13:20:16;97349.59;;;4.16;86.15
75008;BME280;63554;48.940;12.050;2023-12-20T13:24:18;97341.44;;;4.10;86.14
75008;BME280;63554;48.940;12.050;2023-12-20T13:28:22;97341.63;;;4.08;88.33
75008;BME280;63554;48.940;12.050;2023-12-20T13:32:25;97343.81;;;4.05;88.60
75008;BME280;63554;48.940;12.050;2023-12-20T13:36:28;97351.38;;;4.01;89.37
75008;BME280;63554;48.940;12.050;2023-12-20T13:40:32;97345.19;;;4.01;88.36
75008;BME280;63554;48.940;12.050;2023-12-20T13:44:37;97350.94;;;3.89;89.65
75008;BME280;63554;48.940;12.050;2023-12-20T13:48:39;97352.84;;;3.81;90.32
75008;BME280;63554;48.940;12.050;2023-12-20T13:52:43;97357.34;;;3.80;89.75
75008;BME280;63554;48.940;12.050;2023-12-20T13:56:45;97354.16;;;3.85;89.79
75008;BME280;63554;48.940;12.050;2023-12-20T14:01:08;97369.34;;;3.92;89.60
75008;BME280;63554;48.940;12.050;2023-12-20T14:05:11;97362.66;;;4.11;87.54
75008;BME280;63554;48.940;12.050;2023-12-20T14:09:16;97368.66;;;4.22;88.53
75008;BME280;63554;48.940;12.050;2023-12-20T14:13:18;97375.63;;;4.00;90.17
75008;BME280;63554;48.940;12.050;2023-12-20T14:17:23;97371.41;;;3.82;90.78
75008;BME280;63554;48.940;12.050;2023-12-20T14:21:26;97389.84;;;3.77;91.52
75008;BME280;63554;48.940;12.050;2023-12-20T14:25:29;97384.22;;;3.95;93.37
75008;BME280;63554;48.940;12.050;2023-12-20T14:29:46;97379.44;;;4.05;90.32
75008;BME280;63554;48.940;12.050;2023-12-20T14:33:50;97379.41;;;3.90;90.67
75008;BME280;63554;48.940;12.050;2023-12-20T14:37:54;97376.84;;;3.66;91.34
75008;BME280;63554;48.940;12.050;2023-12-20T14:41:57;97376.41;;;3.54;91.55
75008;BME280;63554;48.940;12.050;2023-12-20T14:46:00;97391.97;;;3.50;91.73
75008;BME280;63554;48.940;12.050;2023-12-20T14:50:06;97382.13;;;3.43;92.73
75008;BME280;63554;48.940;12.050;2023-12-20T14:54:09;97384.53;;;3.38;93.37
75008;BME280;63554;48.940;12.050;2023-12-20T14:58:12;97378.84;;;3.32;94.15
75008;BME280;63554;48.940;12.050;2023-12-20T15:02:16;97364.03;;;3.22;93.81
75008;BME280;63554;48.940;12.050;2023-12-20T15:06:20;97370.22;;;3.14;94.27
75008;BME280;63554;48.940;12.050;2023-12-20T15:10:23;97346.34;;;3.12;93.89
75008;BME280;63554;48.940;12.050;2023-12-20T15:14:26;97340.31;;;3.10;94.27
75008;BME280;63554;48.940;12.050;2023-12-20T15:18:30;97338.16;;;3.06;95.11
75008;BME280;63554;48.940;12.050;2023-12-20T15:22:34;97328.47;;;3.05;96.07
75008;BME280;63554;48.940;12.050;2023-12-20T15:26:38;97331.47;;;3.10;95.65
75008;BME280;63554;48.940;12.050;2023-12-20T15:30:42;97327.69;;;3.27;96.19
75008;BME280;63554;48.940;12.050;2023-12-20T15:34:45;97308.59;;;3.39;91.64
75008;BME280;63554;48.940;12.050;2023-12-20T15:38:49;97330.78;;;3.16;92.03
75008;BME280;63554;48.940;12.050;2023-12-20T15:42:52;97324.31;;;2.94;92.60
75008;BME280;63554;48.940;12.050;2023-12-20T15:46:55;97320.19;;;2.83;92.71
75008;BME280;63554;48.940;12.050;2023-12-20T15:50:58;97323.03;;;2.82;92.14
75008;BME280;63554;48.940;12.050;2023-12-20T15:55:03;97331.06;;;2.82;92.16
75008;BME280;63554;48.940;12.050;2023-12-20T15:59:06;97334.22;;;2.85;91.19
75008;BME280;63554;48.940;12.050;2023-12-20T16:03:09;97333.19;;;2.94;90.49
75008;BME280;63554;48.940;12.050;2023-12-20T16:07:26;97343.84;;;3.03;89.44
75008;BME280;63554;48.940;12.050;2023-12-20T16:11:30;97343.84;;;3.03;88.95
75008;BME280;63554;48.940;12.050;2023-12-20T16:15:33;97343.94;;;3.26;89.55
75008;BME280;63554;48.940;12.050;2023-12-20T16:19:35;97355.84;;;3.15;87.83
75008;BME280;63554;48.940;12.050;2023-12-20T16:23:39;97337.31;;;3.05;88.79
75008;BME280;63554;48.940;12.050;2023-12-20T16:27:43;97345.84;;;3.09;88.83
75008;BME280;63554;48.940;12.050;2023-12-20T16:31:48;97343.16;;;3.09;88.54
75008;BME280;63554;48.940;12.050;2023-12-20T16:35:51;97337.84;;;3.01;88.92
75008;BME280;63554;48.940;12.050;2023-12-20T16:39:54;97346.88;;;3.00;89.24
75008;BME280;63554;48.940;12.050;2023-12-20T16:43:58;97339.50;;;3.02;88.81
75008;BME280;63554;48.940;12.050;2023-12-20T16:48:01;97366.56;;;3.07;88.12
75008;BME280;63554;48.940;12.050;2023-12-20T16:52:05;97369.25;;;3.07;88.62
75008;BME280;63554;48.940;12.050;2023-12-20T16:56:08;97348.19;;;3.04;88.75
75008;BME280;63554;48.940;12.050;2023-12-20T17:00:13;97335.00;;;3.02;87.85
75008;BME280;63554;48.940;12.050;2023-12-20T17:04:17;97334.16;;;3.02;88.48
75008;BME280;63554;48.940;12.050;2023-12-20T17:08:19;97321.44;;;3.04;88.27
75008;BME280;63554;48.940;12.050;2023-12-20T17:12:22;97315.94;;;3.05;88.43
75008;BME280;63554;48.940;12.050;2023-12-20T17:16:27;97322.16;;;2.97;89.54
75008;BME280;63554;48.940;12.050;2023-12-20T17:20:30;97325.84;;;2.96;89.46
75008;BME280;63554;48.940;12.050;2023-12-20T17:24:33;97337.03;;;3.00;88.75
75008;BME280;63554;48.940;12.050;2023-12-20T17:28:37;97338.50;;;3.03;87.83
75008;BME280;63554;48.940;12.050;2023-12-20T17:32:41;97347.53;;;3.02;88.97
75008;BME280;63554;48.940;12.050;2023-12-20T17:36:50;97343.38;;;2.99;88.91
75008;BME280;63554;48.940;12.050;2023-12-20T17:40:53;97351.53;;;2.97;89.74
75008;BME280;63554;48.940;12.050;2023-12-20T17:44:56;97354.59;;;2.94;90.00
75008;BME280;63554;48.940;12.050;2023-12-20T17:49:00;97355.91;;;2.99;89.32
75008;BME280;63554;48.940;12.050;2023-12-20T17:53:03;97358.06;;;3.03;89.46
75008;BME280;63554;48.940;12.050;2023-12-20T17:57:06;97356.41;;;3.02;89.67
75008;BME280;63554;48.940;12.050;2023-12-20T18:01:09;97357.72;;;3.06;89.10
75008;BME280;63554;48.940;12.050;2023-12-20T18:05:16;97343.34;;;3.07;89.57
75008;BME280;63554;48.940;12.050;2023-12-20T18:09:19;97342.19;;;3.10;89.17
75008;BME280;63554;48.940;12.050;2023-12-20T18:13:22;97345.00;;;3.08;89.39
75008;BME280;63554;48.940;12.050;2023-12-20T18:17:26;97344.19;;;3.08;89.44
75008;BME280;63554;48.940;12.050;2023-12-20T18:21:30;97337.50;;;3.04;89.88
75008;BME280;63554;48.940;12.050;2023-12-20T18:25:33;97345.03;;;3.00;89.69
75008;BME280;63554;48.940;12.050;2023-12-20T18:29:36;97367.75;;;3.04;90.06
75008;BME280;63554;48.940;12.050;2023-12-20T18:33:38;97359.69;;;3.12;89.08
75008;BME280;63554;48.940;12.050;2023-12-20T18:37:42;97372.72;;;3.15;88.82
75008;BME280;63554;48.940;12.050;2023-12-20T18:41:46;97364.19;;;3.20;87.84
75008;BME280;63554;48.940;12.050;2023-12-20T18:45:49;97360.19;;;3.16;88.66
75008;BME280;63554;48.940;12.050;2023-12-20T18:49:52;97357.03;;;3.12;89.08
75008;BME280;63554;48.940;12.050;2023-12-20T18:53:57;97351.50;;;3.06;89.99
75008;BME280;63554;48.940;12.050;2023-12-20T18:57:59;97351.72;;;3.04;90.06
75008;BME280;63554;48.940;12.050;2023-12-20T19:02:02;97365.25;;;3.03;89.89
75008;BME280;63554;48.940;12.050;2023-12-20T19:06:07;97370.22;;;3.06;89.81
75008;BME280;63554;48.940;12.050;2023-12-20T19:10:11;97366.91;;;3.04;90.36
75008;BME280;63554;48.940;12.050;2023-12-20T19:14:14;97368.25;;;3.08;90.32
75008;BME280;63554;48.940;12.050;2023-12-20T19:18:17;97378.59;;;3.11;90.18
75008;BME280;63554;48.940;12.050;2023-12-20T19:22:19;97373.25;;;3.03;90.85
75008;BME280;63554;48.940;12.050;2023-12-20T19:26:24;97371.94;;;2.99;91.63
75008;BME280;63554;48.940;12.050;2023-12-20T19:30:26;97361.75;;;2.94;91.59
75008;BME280;63554;48.940;12.050;2023-12-20T19:34:30;97355.75;;;2.92;92.47
75008;BME280;63554;48.940;12.050;2023-12-20T19:38:34;97355.75;;;2.92;92.43
75008;BME280;63554;48.940;12.050;2023-12-20T19:42:38;97350.75;;;2.89;93.07
75008;BME280;63554;48.940;12.050;2023-12-20T19:46:41;97332.72;;;2.83;94.40
75008;BME280;63554;48.940;12.050;2023-12-20T19:50:44;97356.91;;;2.89;93.43
75008;BME280;63554;48.940;12.050;2023-12-20T19:54:49;97348.25;;;2.87;94.81
75008;BME280;63554;48.940;12.050;2023-12-20T19:58:53;97339.22;;;2.88;94.62
75008;BME280;63554;48.940;12.050;2023-12-20T20:02:57;97349.44;;;2.85;96.35
75008;BME280;63554;48.940;12.050;2023-12-20T20:06:59;97338.41;;;2.80;97.18
75008;BME280;63554;48.940;12.050;2023-12-20T20:11:02;97341.09;;;2.71;99.47
75008;BME280;63554;48.940;12.050;2023-12-20T20:15:16;97339.78;;;2.67;100.00
75008;BME280;63554;48.940;12.050;2023-12-20T20:19:19;97334.09;;;2.62;100.00
75008;BME280;63554;48.940;12.050;2023-12-20T20:23:21;97331.59;;;2.61;100.00
75008;BME280;63554;48.940;12.050;2023-12-20T20:27:24;97324.44;;;2.61;100.00
75008;BME280;63554;48.940;12.050;2023-12-20T20:31:28;97332.78;;;2.58;100.00
75008;BME280;63554;48.940;12.050;2023-12-20T20:35:35;97312.25;;;2.50;100.00
75008;BME280;63554;48.940;12.050;2023-12-20T20:39:37;97318.59;;;2.57;100.00
75008;BME280;63554;48.940;12.050;2023-12-20T20:43:40;97317.25;;;2.53;100.00
75008;BME280;63554;48.940;12.050;2023-12-20T20:47:44;97307.56;;;2.52;100.00
75008;BME280;63554;48.940;12.050;2023-12-20T20:51:48;97308.75;;;2.50;100.00
75008;BME280;63554;48.940;12.050;2023-12-20T20:55:50;97301.56;;;2.50;100.00
75008;BME280;63554;48.940;12.050;2023-12-20T20:59:53;97300.41;;;2.53;100.00
75008;BME280;63554;48.940;12.050;2023-12-20T21:03:57;97301.25;;;2.45;100.00
75008;BME280;63554;48.940;12.050;2023-12-20T21:08:00;97293.06;;;2.47;100.00
75008;BME280;63554;48.940;12.050;2023-12-20T21:12:04;97279.41;;;2.42;100.00
75008;BME280;63554;48.940;12.050;2023-12-20T21:16:06;97285.56;;;2.42;100.00
75008;BME280;63554;48.940;12.050;2023-12-20T21:20:14;97276.56;;;2.35;100.00
75008;BME280;63554;48.940;12.050;2023-12-20T21:24:17;97268.88;;;2.40;100.00